sensor_id;sensor_type;location;lat;lon;timestamp;pressure;altitude;pressure_sealevel;temperature;humidity
9139;BME280;4604;48.616;9.548;2023-04-06T00:00:56;97111.56;;;1.92;58.75
9139;BME280;4604;48.616;9.548;2023-04-06T00:03:23;97103.00;;;1.90;59.10
9139;BME280;4604;48.616;9.548;2023-04-06T00:05:49;97101.84;;;1.96;59.26
9139;BME280;4604;48.616;9.548;2023-04-06T00:08:16;97101.16;;;1.92;58.92
9139;BME280;4604;48.616;9.548;2023-04-06T00:10:43;97088.72;;;1.82;59.28
9139;BME280;4604;48.616;9.548;2023-04-06T00:13:10;97099.88;;;1.84;59.22
9139;BME280;4604;48.616;9.548;2023-04-06T00:15:38;97095.84;;;1.78;59.16
9139;BME280;4604;48.616;9.548;2023-04-06T00:18:05;97084.94;;;1.71;59.40
9139;BME280;4604;48.616;9.548;2023-04-06T00:20:32;97093.84;;;1.83;59.12
9139;BME280;4604;48.616;9.548;2023-04-06T00:22:59;97090.78;;;1.75;59.25
9139;BME280;4604;48.616;9.548;2023-04-06T00:25:26;97091.97;;;1.69;59.46
9139;BME280;4604;48.616;9.548;2023-04-06T00:27:52;97087.19;;;1.78;58.82
9139;BME280;4604;48.616;9.548;2023-04-06T00:30:19;97080.63;;;1.70;59.27
9139;BME280;4604;48.616;9.548;2023-04-06T00:32:48;97089.13;;;1.74;59.08
9139;BME280;4604;48.616;9.548;2023-04-06T00:35:14;97077.94;;;1.56;61.47
9139;BME280;4604;48.616;9.548;2023-04-06T00:37:41;97079.84;;;1.53;61.52
9139;BME280;4604;48.616;9.548;2023-04-06T00:40:09;97083.59;;;1.47;61.77
9139;BME280;4604;48.616;9.548;2023-04-06T00:42:36;97085.44;;;1.45;62.36
9139;BME280;4604;48.616;9.548;2023-04-06T00:45:04;97092.63;;;1.40;62.91
9139;BME280;4604;48.616;9.548;2023-04-06T00:47:30;97074.22;;;1.27;63.59
9139;BME280;4604;48.616;9.548;2023-04-06T00:49:59;97074.22;;;1.27;63.49
9139;BME280;4604;48.616;9.548;2023-04-06T00:52:26;97066.72;;;1.21;63.69
9139;BME280;4604;48.616;9.548;2023-04-06T00:54:53;97068.50;;;1.20;64.10
9139;BME280;4604;48.616;9.548;2023-04-06T00:57:20;97080.44;;;1.24;63.97
9139;BME280;4604;48.616;9.548;2023-04-06T00:59:47;97078.06;;;1.20;63.69
9139;BME280;4604;48.616;9.548;2023-04-06T01:02:13;97073.31;;;1.11;64.27
9139;BME280;4604;48.616;9.548;2023-04-06T01:04:40;97077.97;;;1.04;64.82
9139;BME280;4604;48.616;9.548;2023-04-06T01:07:08;97074.72;;;1.00;65.42
9139;BME280;4604;48.616;9.548;2023-04-06T01:09:35;97079.34;;;0.94;65.27
9139;BME280;4604;48.616;9.548;2023-04-06T01:12:03;97068.59;;;0.84;65.63
9139;BME280;4604;48.616;9.548;2023-04-06T01:14:30;97066.22;;;0.79;65.99
9139;BME280;4604;48.616;9.548;2023-04-06T01:16:58;97066.28;;;0.78;66.13
9139;BME280;4604;48.616;9.548;2023-04-06T01:19:25;97075.91;;;0.76;66.89
9139;BME280;4604;48.616;9.548;2023-04-06T01:21:51;97070.78;;;0.74;66.94
9139;BME280;4604;48.616;9.548;2023-04-06T01:24:20;97063.44;;;0.65;66.54
9139;BME280;4604;48.616;9.548;2023-04-06T01:26:47;97067.81;;;0.64;66.93
9139;BME280;4604;48.616;9.548;2023-04-06T01:29:14;97060.22;;;0.60;67.08
9139;BME280;4604;48.616;9.548;2023-04-06T01:31:40;97045.09;;;0.51;67.46
9139;BME280;4604;48.616;9.548;2023-04-06T01:34:07;97057.78;;;0.57;67.80
9139;BME280;4604;48.616;9.548;2023-04-06T01:36:34;97055.34;;;0.54;67.76
9139;BME280;4604;48.616;9.548;2023-04-06T01:39:01;97054.69;;;0.49;67.34
9139;BME280;4604;48.616;9.548;2023-04-06T01:41:29;97044.78;;;0.39;67.42
9139;BME280;4604;48.616;9.548;2023-04-06T01:43:55;97047.28;;;0.41;68.00
9139;BME280;4604;48.616;9.548;2023-04-06T01:46:22;97038.06;;;0.35;67.62
9139;BME280;4604;48.616;9.548;2023-04-06T01:48:49;97039.25;;;0.28;68.41
9139;BME280;4604;48.616;9.548;2023-04-06T01:51:16;97041.56;;;0.34;67.85
9139;BME280;4604;48.616;9.548;2023-04-06T01:53:43;97033.78;;;0.34;68.25
9139;BME280;4604;48.616;9.548;2023-04-06T01:56:09;97042.41;;;0.35;68.58
9139;BME280;4604;48.616;9.548;2023-04-06T01:58:38;97039.09;;;0.31;68.19
9139;BME280;4604;48.616;9.548;2023-04-06T02:01:04;97032.31;;;0.29;68.43
9139;BME280;4604;48.616;9.548;2023-04-06T02:03:31;97041.09;;;0.26;68.31
9139;BME280;4604;48.616;9.548;2023-04-06T02:05:58;97038.69;;;0.21;69.01
9139;BME280;4604;48.616;9.548;2023-04-06T02:08:25;97038.84;;;0.18;68.86
9139;BME280;4604;48.616;9.548;2023-04-06T02:10:52;97037.47;;;0.11;69.17
9139;BME280;4604;48.616;9.548;2023-04-06T02:13:18;97042.66;;;0.11;69.24
9139;BME280;4604;48.616;9.548;2023-04-06T02:15:47;97039.69;;;0.19;68.83
9139;BME280;4604;48.616;9.548;2023-04-06T02:18:13;97051.38;;;0.10;68.97
9139;BME280;4604;48.616;9.548;2023-04-06T02:20:40;97038.75;;;0.03;69.32
9139;BME280;4604;48.616;9.548;2023-04-06T02:23:07;97047.38;;;0.03;69.02
9139;BME280;4604;48.616;9.548;2023-04-06T02:25:34;97049.81;;;0.06;68.54
9139;BME280;4604;48.616;9.548;2023-04-06T02:28:01;97028.84;;;-0.08;68.78
9139;BME280;4604;48.616;9.548;2023-04-06T02:30:28;97048.34;;;0.01;68.80
9139;BME280;4604;48.616;9.548;2023-04-06T02:32:56;97020.66;;;-0.18;68.88
9139;BME280;4604;48.616;9.548;2023-04-06T02:35:25;97044.34;;;-0.07;68.76
9139;BME280;4604;48.616;9.548;2023-04-06T02:37:53;97042.81;;;-0.11;69.33
9139;BME280;4604;48.616;9.548;2023-04-06T02:40:20;97041.81;;;-0.08;69.72
9139;BME280;4604;48.616;9.548;2023-04-06T02:42:46;97035.94;;;-0.12;69.72
9139;BME280;4604;48.616;9.548;2023-04-06T02:45:13;97028.44;;;-0.18;70.11
9139;BME280;4604;48.616;9.548;2023-04-06T02:47:41;97025.56;;;-0.31;71.00
9139;BME280;4604;48.616;9.548;2023-04-06T02:50:10;97023.97;;;-0.33;71.08
9139;BME280;4604;48.616;9.548;2023-04-06T02:52:36;97033.41;;;-0.32;71.53
9139;BME280;4604;48.616;9.548;2023-04-06T02:55:04;97025.09;;;-0.39;71.97
9139;BME280;4604;48.616;9.548;2023-04-06T02:57:32;97024.31;;;-0.41;72.55
9139;BME280;4604;48.616;9.548;2023-04-06T02:59:59;97022.72;;;-0.44;72.39
9139;BME280;4604;48.616;9.548;2023-04-06T03:02:26;97031.22;;;-0.41;72.56
9139;BME280;4604;48.616;9.548;2023-04-06T03:04:53;97034.81;;;-0.44;72.89
9139;BME280;4604;48.616;9.548;2023-04-06T03:07:21;97031.47;;;-0.46;73.30
9139;BME280;4604;48.616;9.548;2023-04-06T03:09:48;97032.44;;;-0.49;73.11
9139;BME280;4604;48.616;9.548;2023-04-06T03:12:15;97028.00;;;-0.47;73.06
9139;BME280;4604;48.616;9.548;2023-04-06T03:14:41;97030.75;;;-0.50;73.03
9139;BME280;4604;48.616;9.548;2023-04-06T03:17:08;97023.38;;;-0.59;73.33
9139;BME280;4604;48.616;9.548;2023-04-06T03:19:35;97026.34;;;-0.48;72.90
9139;BME280;4604;48.616;9.548;2023-04-06T03:22:02;97017.28;;;-0.58;72.70
9139;BME280;4604;48.616;9.548;2023-04-06T03:24:30;97022.34;;;-0.55;72.49
9139;BME280;4604;48.616;9.548;2023-04-06T03:26:57;97024.28;;;-0.60;72.64
9139;BME280;4604;48.616;9.548;2023-04-06T03:29:23;97007.38;;;-0.69;72.47
9139;BME280;4604;48.616;9.548;2023-04-06T03:31:50;97025.63;;;-0.70;72.37
9139;BME280;4604;48.616;9.548;2023-04-06T03:34:17;97025.66;;;-0.72;72.78
9139;BME280;4604;48.616;9.548;2023-04-06T03:36:44;97039.41;;;-0.70;73.10
9139;BME280;4604;48.616;9.548;2023-04-06T03:39:10;97035.41;;;-0.77;72.99
9139;BME280;4604;48.616;9.548;2023-04-06T03:41:38;97037.84;;;-0.74;73.35
9139;BME280;4604;48.616;9.548;2023-04-06T03:44:05;97038.13;;;-0.80;73.61
9139;BME280;4604;48.616;9.548;2023-04-06T03:46:32;97034.81;;;-0.83;74.13
9139;BME280;4604;48.616;9.548;2023-04-06T03:48:59;97036.84;;;-0.90;74.44
9139;BME280;4604;48.616;9.548;2023-04-06T03:51:27;97036.00;;;-0.91;74.51
9139;BME280;4604;48.616;9.548;2023-04-06T03:53:54;97041.16;;;-0.91;74.86
9139;BME280;4604;48.616;9.548;2023-04-06T03:56:20;97044.72;;;-0.93;75.15
9139;BME280;4604;48.616;9.548;2023-04-06T03:58:48;97035.53;;;-1.00;74.69
9139;BME280;4604;48.616;9.548;2023-04-06T04:01:16;97049.22;;;-0.97;75.00
9139;BME280;4604;48.616;9.548;2023-04-06T04:03:43;97050.09;;;-0.98;75.07
9139;BME280;4604;48.616;9.548;2023-04-06T04:06:09;97051.03;;;-0.99;74.92
9139;BME280;4604;48.616;9.548;2023-04-06T04:08:36;97048.56;;;-1.02;75.36
9139;BME280;4604;48.616;9.548;2023-04-06T04:11:03;97050.38;;;-1.04;75.15
9139;BME280;4604;48.616;9.548;2023-04-06T04:13:29;97056.34;;;-1.02;75.25
9139;BME280;4604;48.616;9.548;2023-04-06T04:15:57;97058.94;;;-1.02;75.31
9139;BME280;4604;48.616;9.548;2023-04-06T04:18:25;97059.13;;;-1.06;75.23
9139;BME280;4604;48.616;9.548;2023-04-06T04:20:51;97060.78;;;-1.05;75.00
9139;BME280;4604;48.616;9.548;2023-04-06T04:23:18;97061.63;;;-1.05;74.66
9139;BME280;4604;48.616;9.548;2023-04-06T04:25:45;97064.44;;;-1.10;74.44
9139;BME280;4604;48.616;9.548;2023-04-06T04:28:12;97062.75;;;-1.11;74.39
9139;BME280;4604;48.616;9.548;2023-04-06T04:30:38;97063.56;;;-1.10;74.34
9139;BME280;4604;48.616;9.548;2023-04-06T04:33:06;97068.88;;;-1.13;74.56
9139;BME280;4604;48.616;9.548;2023-04-06T04:35:33;97064.72;;;-1.17;74.84
9139;BME280;4604;48.616;9.548;2023-04-06T04:38:00;97061.41;;;-1.19;74.99
9139;BME280;4604;48.616;9.548;2023-04-06T04:40:26;97054.78;;;-1.26;75.23
9139;BME280;4604;48.616;9.548;2023-04-06T04:42:55;97061.69;;;-1.27;75.53
9139;BME280;4604;48.616;9.548;2023-04-06T04:45:22;97066.16;;;-1.31;75.93
9139;BME280;4604;48.616;9.548;2023-04-06T04:47:49;97069.44;;;-1.27;75.99
9139;BME280;4604;48.616;9.548;2023-04-06T04:50:17;97066.88;;;-1.27;76.05
9139;BME280;4604;48.616;9.548;2023-04-06T04:52:43;97060.97;;;-1.31;76.49
9139;BME280;4604;48.616;9.548;2023-04-06T04:55:10;97065.38;;;-1.33;76.82
9139;BME280;4604;48.616;9.548;2023-04-06T04:57:37;97071.47;;;-1.34;77.12
9139;BME280;4604;48.616;9.548;2023-04-06T05:00:05;97077.44;;;-1.32;77.17
9139;BME280;4604;48.616;9.548;2023-04-06T05:02:31;97069.44;;;-1.27;76.70
9139;BME280;4604;48.616;9.548;2023-04-06T05:04:58;97059.22;;;-1.30;76.48
9139;BME280;4604;48.616;9.548;2023-04-06T05:07:26;97072.00;;;-1.25;76.80
9139;BME280;4604;48.616;9.548;2023-04-06T05:09:53;97069.25;;;-1.22;76.51
9139;BME280;4604;48.616;9.548;2023-04-06T05:12:20;97076.84;;;-1.18;76.36
9139;BME280;4604;48.616;9.548;2023-04-06T05:14:47;97066.81;;;-1.25;76.37
9139;BME280;4604;48.616;9.548;2023-04-06T05:17:14;97082.03;;;-1.18;76.29
9139;BME280;4604;48.616;9.548;2023-04-06T05:19:41;97084.69;;;-1.19;76.20
9139;BME280;4604;48.616;9.548;2023-04-06T05:22:08;97090.75;;;-1.20;76.34
9139;BME280;4604;48.616;9.548;2023-04-06T05:24:36;97089.88;;;-1.19;76.63
9139;BME280;4604;48.616;9.548;2023-04-06T05:27:03;97084.56;;;-1.16;76.71
9139;BME280;4604;48.616;9.548;2023-04-06T05:29:30;97089.38;;;-1.07;76.54
9139;BME280;4604;48.616;9.548;2023-04-06T05:31:56;97099.72;;;-1.07;76.63
9139;BME280;4604;48.616;9.548;2023-04-06T05:34:23;97092.66;;;-1.03;76.41
9139;BME280;4604;48.616;9.548;2023-04-06T05:36:50;97102.88;;;-1.00;76.56
9139;BME280;4604;48.616;9.548;2023-04-06T05:39:17;97079.66;;;-1.02;76.07
9139;BME280;4604;48.616;9.548;2023-04-06T05:41:45;97102.25;;;-0.85;76.02
9139;BME280;4604;48.616;9.548;2023-04-06T05:44:12;97074.97;;;-0.94;75.74
9139;BME280;4604;48.616;9.548;2023-04-06T05:46:38;97102.63;;;-0.74;75.71
9139;BME280;4604;48.616;9.548;2023-04-06T05:49:05;97097.41;;;-0.72;75.48
9139;BME280;4604;48.616;9.548;2023-04-06T05:51:32;97108.91;;;-0.59;75.70
9139;BME280;4604;48.616;9.548;2023-04-06T05:53:59;97115.50;;;-0.52;75.50
9139;BME280;4604;48.616;9.548;2023-04-06T05:56:27;97113.25;;;-0.39;75.57
9139;BME280;4604;48.616;9.548;2023-04-06T05:58:56;97115.28;;;-0.27;75.13
9139;BME280;4604;48.616;9.548;2023-04-06T06:01:23;97116.63;;;-0.18;75.38
9139;BME280;4604;48.616;9.548;2023-04-06T06:03:50;97120.28;;;-0.03;74.74
9139;BME280;4604;48.616;9.548;2023-04-06T06:06:17;97114.47;;;0.11;74.02
9139;BME280;4604;48.616;9.548;2023-04-06T06:08:43;97115.47;;;0.27;73.91
9139;BME280;4604;48.616;9.548;2023-04-06T06:11:11;97122.44;;;0.44;72.71
9139;BME280;4604;48.616;9.548;2023-04-06T06:13:37;97115.75;;;0.57;72.32
9139;BME280;4604;48.616;9.548;2023-04-06T06:16:06;97126.38;;;0.70;72.05
9139;BME280;4604;48.616;9.548;2023-04-06T06:18:32;97124.97;;;0.82;72.23
9139;BME280;4604;48.616;9.548;2023-04-06T06:20:59;97129.72;;;0.91;71.81
9139;BME280;4604;48.616;9.548;2023-04-06T06:23:26;97130.09;;;1.01;72.38
9139;BME280;4604;48.616;9.548;2023-04-06T06:25:53;97128.88;;;1.08;72.78
9139;BME280;4604;48.616;9.548;2023-04-06T06:28:21;97121.66;;;1.15;72.62
9139;BME280;4604;48.616;9.548;2023-04-06T06:30:48;97128.13;;;1.23;72.48
9139;BME280;4604;48.616;9.548;2023-04-06T06:33:16;97131.53;;;1.41;72.06
9139;BME280;4604;48.616;9.548;2023-04-06T06:35:43;97132.69;;;1.53;71.51
9139;BME280;4604;48.616;9.548;2023-04-06T06:38:10;97129.63;;;1.62;70.77
9139;BME280;4604;48.616;9.548;2023-04-06T06:40:37;97137.56;;;1.77;70.53
9139;BME280;4604;48.616;9.548;2023-04-06T06:43:03;97131.53;;;1.92;70.04
9139;BME280;4604;48.616;9.548;2023-04-06T06:45:30;97118.22;;;1.98;69.04
9139;BME280;4604;48.616;9.548;2023-04-06T06:47:58;97132.75;;;2.34;71.79
9139;BME280;4604;48.616;9.548;2023-04-06T06:50:27;97128.97;;;2.55;74.06
9139;BME280;4604;48.616;9.548;2023-04-06T06:52:53;97131.84;;;2.67;71.84
9139;BME280;4604;48.616;9.548;2023-04-06T06:55:20;97122.50;;;2.78;70.75
9139;BME280;4604;48.616;9.548;2023-04-06T06:57:47;97125.34;;;2.90;69.51
9139;BME280;4604;48.616;9.548;2023-04-06T07:00:17;97135.16;;;3.00;68.29
9139;BME280;4604;48.616;9.548;2023-04-06T07:02:45;97122.34;;;3.12;66.64
9139;BME280;4604;48.616;9.548;2023-04-06T07:05:12;97127.53;;;3.28;65.26
9139;BME280;4604;48.616;9.548;2023-04-06T07:07:40;97129.16;;;3.45;60.59
9139;BME280;4604;48.616;9.548;2023-04-06T07:10:08;97124.91;;;3.28;59.65
9139;BME280;4604;48.616;9.548;2023-04-06T07:12:35;97131.25;;;3.38;60.09
9139;BME280;4604;48.616;9.548;2023-04-06T07:15:01;97115.56;;;3.54;60.49
9139;BME280;4604;48.616;9.548;2023-04-06T07:17:28;97122.00;;;3.62;60.39
9139;BME280;4604;48.616;9.548;2023-04-06T07:19:55;97129.00;;;3.76;59.87
9139;BME280;4604;48.616;9.548;2023-04-06T07:22:21;97132.53;;;4.04;58.67
9139;BME280;4604;48.616;9.548;2023-04-06T07:24:50;97133.28;;;4.20;57.78
9139;BME280;4604;48.616;9.548;2023-04-06T07:27:16;97133.22;;;4.22;58.37
9139;BME280;4604;48.616;9.548;2023-04-06T07:29:44;97131.97;;;4.27;58.32
9139;BME280;4604;48.616;9.548;2023-04-06T07:32:10;97136.16;;;4.44;57.92
9139;BME280;4604;48.616;9.548;2023-04-06T07:34:37;97136.22;;;4.57;56.28
9139;BME280;4604;48.616;9.548;2023-04-06T07:37:04;97139.91;;;4.67;56.02
9139;BME280;4604;48.616;9.548;2023-04-06T07:39:30;97137.22;;;4.69;56.54
9139;BME280;4604;48.616;9.548;2023-04-06T07:41:59;97134.91;;;4.91;56.62
9139;BME280;4604;48.616;9.548;2023-04-06T07:44:25;97134.41;;;4.99;55.70
9139;BME280;4604;48.616;9.548;2023-04-06T07:46:54;97133.00;;;5.21;55.02
9139;BME280;4604;48.616;9.548;2023-04-06T07:49:21;97138.53;;;5.16;54.64
9139;BME280;4604;48.616;9.548;2023-04-06T07:51:48;97133.97;;;5.20;54.67
9139;BME280;4604;48.616;9.548;2023-04-06T07:54:15;97138.59;;;5.02;54.29
9139;BME280;4604;48.616;9.548;2023-04-06T07:56:41;97139.66;;;5.39;51.16
9139;BME280;4604;48.616;9.548;2023-04-06T07:59:09;97132.22;;;5.46;50.91
9139;BME280;4604;48.616;9.548;2023-04-06T08:01:37;97137.34;;;5.47;51.63
9139;BME280;4604;48.616;9.548;2023-04-06T08:04:03;97140.09;;;5.58;53.00
9139;BME280;4604;48.616;9.548;2023-04-06T08:06:30;97132.88;;;5.75;52.32
9139;BME280;4604;48.616;9.548;2023-04-06T08:08:57;97131.28;;;5.85;52.26
9139;BME280;4604;48.616;9.548;2023-04-06T08:11:24;97130.06;;;5.91;52.20
9139;BME280;4604;48.616;9.548;2023-04-06T08:13:52;97134.69;;;6.00;51.52
9139;BME280;4604;48.616;9.548;2023-04-06T08:16:20;97124.38;;;6.35;50.07
9139;BME280;4604;48.616;9.548;2023-04-06T08:18:46;97120.81;;;6.24;49.93
9139;BME280;4604;48.616;9.548;2023-04-06T08:21:13;97121.72;;;6.48;49.87
9139;BME280;4604;48.616;9.548;2023-04-06T08:23:40;97123.28;;;6.51;50.56
9139;BME280;4604;48.616;9.548;2023-04-06T08:26:06;97109.69;;;6.70;50.64
9139;BME280;4604;48.616;9.548;2023-04-06T08:28:34;97124.47;;;6.95;50.29
9139;BME280;4604;48.616;9.548;2023-04-06T08:31:03;97124.59;;;6.93;50.47
9139;BME280;4604;48.616;9.548;2023-04-06T08:33:32;97121.59;;;6.86;50.43
9139;BME280;4604;48.616;9.548;2023-04-06T08:36:07;97118.69;;;7.02;50.38
9139;BME280;4604;48.616;9.548;2023-04-06T08:38:33;97118.22;;;7.08;48.90
9139;BME280;4604;48.616;9.548;2023-04-06T08:41:06;97126.72;;;7.12;49.61
9139;BME280;4604;48.616;9.548;2023-04-06T08:43:36;97119.13;;;7.20;50.37
9139;BME280;4604;48.616;9.548;2023-04-06T08:46:05;97129.06;;;7.28;48.91
9139;BME280;4604;48.616;9.548;2023-04-06T08:48:34;97118.38;;;7.18;48.43
9139;BME280;4604;48.616;9.548;2023-04-06T08:51:02;97122.41;;;7.35;48.54
9139;BME280;4604;48.616;9.548;2023-04-06T08:53:30;97118.84;;;7.47;46.34
9139;BME280;4604;48.616;9.548;2023-04-06T08:55:58;97109.50;;;7.32;45.68
9139;BME280;4604;48.616;9.548;2023-04-06T08:58:26;97123.19;;;7.60;45.90
9139;BME280;4604;48.616;9.548;2023-04-06T09:00:55;97122.94;;;7.63;46.08
9139;BME280;4604;48.616;9.548;2023-04-06T09:03:22;97117.75;;;7.85;45.79
9139;BME280;4604;48.616;9.548;2023-04-06T09:05:52;97121.47;;;8.05;44.52
9139;BME280;4604;48.616;9.548;2023-04-06T09:08:19;97112.84;;;8.37;43.86
9139;BME280;4604;48.616;9.548;2023-04-06T09:10:46;97117.16;;;8.38;43.93
9139;BME280;4604;48.616;9.548;2023-04-06T09:13:12;97118.34;;;8.23;44.03
9139;BME280;4604;48.616;9.548;2023-04-06T09:15:39;97112.84;;;8.26;44.71
9139;BME280;4604;48.616;9.548;2023-04-06T09:18:06;97107.94;;;8.21;44.67
9139;BME280;4604;48.616;9.548;2023-04-06T09:20:33;97108.41;;;8.26;45.22
9139;BME280;4604;48.616;9.548;2023-04-06T09:23:01;97112.63;;;8.40;44.30
9139;BME280;4604;48.616;9.548;2023-04-06T09:25:28;97111.19;;;8.47;43.58
9139;BME280;4604;48.616;9.548;2023-04-06T09:28:00;97106.13;;;8.67;43.61
9139;BME280;4604;48.616;9.548;2023-04-06T09:30:28;97093.25;;;8.96;43.87
9139;BME280;4604;48.616;9.548;2023-04-06T09:32:56;97097.34;;;9.21;43.08
9139;BME280;4604;48.616;9.548;2023-04-06T09:35:24;97099.50;;;8.95;42.69
9139;BME280;4604;48.616;9.548;2023-04-06T09:37:53;97097.63;;;8.74;42.48
9139;BME280;4604;48.616;9.548;2023-04-06T09:40:22;97090.84;;;9.04;42.88
9139;BME280;4604;48.616;9.548;2023-04-06T09:42:50;97099.88;;;9.23;42.71
9139;BME280;4604;48.616;9.548;2023-04-06T09:45:19;97098.72;;;9.57;40.82
9139;BME280;4604;48.616;9.548;2023-04-06T09:47:47;97095.50;;;9.75;38.68
9139;BME280;4604;48.616;9.548;2023-04-06T09:50:15;97087.63;;;9.54;39.68
9139;BME280;4604;48.616;9.548;2023-04-06T09:52:47;97091.41;;;9.61;39.64
9139;BME280;4604;48.616;9.548;2023-04-06T09:55:19;97088.22;;;9.88;39.21
9139;BME280;4604;48.616;9.548;2023-04-06T09:57:52;97085.75;;;9.96;37.36
9139;BME280;4604;48.616;9.548;2023-04-06T10:00:23;97079.41;;;9.99;37.26
9139;BME280;4604;48.616;9.548;2023-04-06T10:02:58;97076.91;;;9.97;38.54
9139;BME280;4604;48.616;9.548;2023-04-06T10:05:32;97077.06;;;10.05;37.99
9139;BME280;4604;48.616;9.548;2023-04-06T10:08:05;97079.63;;;10.26;38.13
9139;BME280;4604;48.616;9.548;2023-04-06T10:10:32;97067.81;;;10.21;37.27
9139;BME280;4604;48.616;9.548;2023-04-06T10:13:01;97071.03;;;10.24;37.00
9139;BME280;4604;48.616;9.548;2023-04-06T10:15:28;97076.06;;;10.27;35.75
9139;BME280;4604;48.616;9.548;2023-04-06T10:17:56;97070.94;;;9.95;35.73
9139;BME280;4604;48.616;9.548;2023-04-06T10:20:27;97068.03;;;10.29;36.84
9139;BME280;4604;48.616;9.548;2023-04-06T10:22:59;97049.56;;;10.29;36.09
9139;BME280;4604;48.616;9.548;2023-04-06T10:25:29;97058.03;;;10.33;36.41
9139;BME280;4604;48.616;9.548;2023-04-06T10:28:04;97056.13;;;10.44;37.08
9139;BME280;4604;48.616;9.548;2023-04-06T10:30:32;97062.56;;;10.61;36.06
9139;BME280;4604;48.616;9.548;2023-04-06T10:32:59;97062.72;;;10.69;36.24
9139;BME280;4604;48.616;9.548;2023-04-06T10:35:36;97061.75;;;11.00;38.03
9139;BME280;4604;48.616;9.548;2023-04-06T10:38:04;97065.97;;;11.02;37.54
9139;BME280;4604;48.616;9.548;2023-04-06T10:40:34;97072.59;;;10.97;37.35
9139;BME280;4604;48.616;9.548;2023-04-06T10:43:09;97068.84;;;10.99;37.34
9139;BME280;4604;48.616;9.548;2023-04-06T10:45:37;97073.44;;;11.07;35.96
9139;BME280;4604;48.616;9.548;2023-04-06T10:48:13;97066.91;;;11.30;37.77
9139;BME280;4604;48.616;9.548;2023-04-06T10:50:41;97060.09;;;11.28;36.33
9139;BME280;4604;48.616;9.548;2023-04-06T10:53:08;97050.09;;;11.31;36.12
9139;BME280;4604;48.616;9.548;2023-04-06T10:55:38;97047.66;;;11.67;35.97
9139;BME280;4604;48.616;9.548;2023-04-06T10:58:07;97051.16;;;11.48;35.60
9139;BME280;4604;48.616;9.548;2023-04-06T11:00:35;97051.19;;;11.09;35.61
9139;BME280;4604;48.616;9.548;2023-04-06T11:03:02;97057.47;;;11.08;35.24
9139;BME280;4604;48.616;9.548;2023-04-06T11:05:28;97057.31;;;11.29;35.04
9139;BME280;4604;48.616;9.548;2023-04-06T11:07:55;97059.25;;;11.27;36.21
9139;BME280;4604;48.616;9.548;2023-04-06T11:10:22;97052.56;;;11.33;35.17
9139;BME280;4604;48.616;9.548;2023-04-06T11:12:53;97041.88;;;11.34;35.48
9139;BME280;4604;48.616;9.548;2023-04-06T11:15:21;97032.09;;;11.54;35.27
9139;BME280;4604;48.616;9.548;2023-04-06T11:17:48;97043.31;;;11.76;35.82
9139;BME280;4604;48.616;9.548;2023-04-06T11:20:15;97026.47;;;11.77;35.20
9139;BME280;4604;48.616;9.548;2023-04-06T11:22:50;97034.13;;;11.70;34.93
9139;BME280;4604;48.616;9.548;2023-04-06T11:25:17;97029.31;;;11.56;34.46
9139;BME280;4604;48.616;9.548;2023-04-06T11:27:45;97038.00;;;11.95;34.12
9139;BME280;4604;48.616;9.548;2023-04-06T11:30:13;97028.38;;;11.94;33.60
9139;BME280;4604;48.616;9.548;2023-04-06T11:32:41;97033.69;;;11.85;34.96
9139;BME280;4604;48.616;9.548;2023-04-06T11:35:11;97027.66;;;12.02;33.63
9139;BME280;4604;48.616;9.548;2023-04-06T11:37:39;97024.75;;;12.05;34.40
9139;BME280;4604;48.616;9.548;2023-04-06T11:40:08;97020.22;;;11.88;34.42
9139;BME280;4604;48.616;9.548;2023-04-06T11:42:35;97012.03;;;12.09;35.61
9139;BME280;4604;48.616;9.548;2023-04-06T11:45:02;97010.03;;;12.20;34.13
9139;BME280;4604;48.616;9.548;2023-04-06T11:47:30;97013.31;;;12.32;32.87
9139;BME280;4604;48.616;9.548;2023-04-06T11:50:07;97005.47;;;12.40;32.81
9139;BME280;4604;48.616;9.548;2023-04-06T11:52:33;97010.22;;;12.37;33.48
9139;BME280;4604;48.616;9.548;2023-04-06T11:55:11;97008.44;;;12.10;32.48
9139;BME280;4604;48.616;9.548;2023-04-06T11:57:38;97011.44;;;11.77;32.85
9139;BME280;4604;48.616;9.548;2023-04-06T12:00:06;96999.06;;;11.88;31.96
9139;BME280;4604;48.616;9.548;2023-04-06T12:02:33;96999.69;;;11.99;33.50
9139;BME280;4604;48.616;9.548;2023-04-06T12:05:00;96997.09;;;12.17;32.92
9139;BME280;4604;48.616;9.548;2023-04-06T12:07:28;96992.66;;;12.18;32.27
9139;BME280;4604;48.616;9.548;2023-04-06T12:09:55;96992.53;;;12.55;33.07
9139;BME280;4604;48.616;9.548;2023-04-06T12:12:22;96995.06;;;12.75;32.79
9139;BME280;4604;48.616;9.548;2023-04-06T12:14:48;96985.72;;;13.06;32.11
9139;BME280;4604;48.616;9.548;2023-04-06T12:17:15;96980.50;;;12.97;32.00
9139;BME280;4604;48.616;9.548;2023-04-06T12:19:42;96984.34;;;13.20;32.86
9139;BME280;4604;48.616;9.548;2023-04-06T12:22:08;96990.75;;;13.27;32.77
9139;BME280;4604;48.616;9.548;2023-04-06T12:24:37;96979.97;;;13.11;31.58
9139;BME280;4604;48.616;9.548;2023-04-06T12:27:04;96977.41;;;13.01;31.42
9139;BME280;4604;48.616;9.548;2023-04-06T12:29:30;96975.91;;;12.99;31.90
9139;BME280;4604;48.616;9.548;2023-04-06T12:31:57;96977.50;;;12.92;30.98
9139;BME280;4604;48.616;9.548;2023-04-06T12:34:25;96967.13;;;12.98;31.38
9139;BME280;4604;48.616;9.548;2023-04-06T12:36:52;96961.09;;;12.88;31.06
9139;BME280;4604;48.616;9.548;2023-04-06T12:39:19;96966.13;;;12.46;32.26
9139;BME280;4604;48.616;9.548;2023-04-06T12:41:48;96964.69;;;12.33;31.84
9139;BME280;4604;48.616;9.548;2023-04-06T12:44:15;96962.06;;;12.69;31.34
9139;BME280;4604;48.616;9.548;2023-04-06T12:46:42;96972.13;;;13.01;31.63
9139;BME280;4604;48.616;9.548;2023-04-06T12:49:09;96982.03;;;12.99;31.35
9139;BME280;4604;48.616;9.548;2023-04-06T12:51:36;96974.00;;;12.55;31.65
9139;BME280;4604;48.616;9.548;2023-04-06T12:54:03;96967.97;;;12.63;31.24
9139;BME280;4604;48.616;9.548;2023-04-06T12:56:30;96972.75;;;12.95;31.74
9139;BME280;4604;48.616;9.548;2023-04-06T12:58:59;96968.38;;;13.30;32.71
9139;BME280;4604;48.616;9.548;2023-04-06T13:01:26;96960.38;;;13.22;31.54
9139;BME280;4604;48.616;9.548;2023-04-06T13:03:56;96957.84;;;13.38;32.19
9139;BME280;4604;48.616;9.548;2023-04-06T13:06:23;96943.50;;;13.49;32.67
9139;BME280;4604;48.616;9.548;2023-04-06T13:08:53;96949.59;;;13.76;32.82
9139;BME280;4604;48.616;9.548;2023-04-06T13:11:19;96953.28;;;13.83;31.92
9139;BME280;4604;48.616;9.548;2023-04-06T13:13:49;96960.28;;;13.92;30.64
9139;BME280;4604;48.616;9.548;2023-04-06T13:16:17;96949.00;;;13.90;31.24
9139;BME280;4604;48.616;9.548;2023-04-06T13:18:44;96950.53;;;14.01;30.83
9139;BME280;4604;48.616;9.548;2023-04-06T13:21:13;96948.03;;;13.99;30.33
9139;BME280;4604;48.616;9.548;2023-04-06T13:23:41;96930.31;;;14.00;29.92
9139;BME280;4604;48.616;9.548;2023-04-06T13:26:08;96930.31;;;14.00;29.35
9139;BME280;4604;48.616;9.548;2023-04-06T13:28:36;96945.56;;;13.98;30.49